Time;durP1;ratioP1;P1;durP2;ratioP2;P2;SDS_P1;SDS_P2;PMS_P1;PMS_P2;Temp;Humidity;BMP_temperature;BMP_pressure;BME280_temperature;BME280_humidity;BME280_pressure;Samples;Min_cycle;Max_cycle;Signal;HPM_P1;HPM_P2
2022/03/27 00:00:05;;;;;;;14.65;11.10;;;;;;;12.96;42.04;103359.69;5076419;28;20048;-76
2022/03/27 00:02:31;;;;;;;15.27;9.90;;;;;;;12.55;42.84;103359.28;5075555;28;20037;-76
2022/03/27 00:04:56;;;;;;;14.32;9.68;;;;;;;12.71;42.52;103361.53;5075053;28;20029;-76
2022/03/27 00:07:22;;;;;;;17.15;9.23;;;;;;;12.41;42.66;103364.78;5075741;28;20496;-75
2022/03/27 00:09:47;;;;;;;12.70;9.15;;;;;;;12.99;41.59;103364.69;5075450;28;20229;-76
2022/03/27 00:12:12;;;;;;;12.43;8.30;;;;;;;11.85;43.92;103368.25;5074769;28;20024;-78
2022/03/27 00:14:38;;;;;;;13.07;8.82;;;;;;;12.77;41.91;103366.91;5075617;28;20204;-77
2022/03/27 00:17:03;;;;;;;12.18;8.38;;;;;;;12.53;42.19;103366.84;5076687;28;20024;-76
2022/03/27 00:19:29;;;;;;;10.13;7.40;;;;;;;12.57;41.91;103360.75;5075111;28;20024;-76
2022/03/27 00:21:54;;;;;;;13.88;8.93;;;;;;;12.66;41.97;103364.88;5076359;28;20036;-77
2022/03/27 00:24:19;;;;;;;10.65;7.75;;;;;;;12.72;41.69;103361.28;5094148;28;20035;-77
2022/03/27 00:26:45;;;;;;;9.25;7.03;;;;;;;12.75;41.07;103363.56;5096288;28;20115;-77
2022/03/27 00:29:10;;;;;;;12.10;7.80;;;;;;;11.89;43.60;103366.78;5096121;28;20121;-75
2022/03/27 00:31:38;;;;;;;9.68;8.05;;;;;;;11.51;44.19;103359.31;5095556;28;20133;-77
2022/03/27 00:34:05;;;;;;;10.50;6.65;;;;;;;11.81;43.38;103356.16;5095574;28;20508;-77
2022/03/27 00:36:30;;;;;;;9.32;7.05;;;;;;;11.53;43.62;103350.97;5095701;28;20096;-77
2022/03/27 00:38:55;;;;;;;12.55;8.07;;;;;;;11.53;43.75;103346.34;5083900;28;20142;-78
2022/03/27 00:42:19;;;;;;;13.50;7.80;;;;;;;12.04;42.67;103351.91;5079087;28;20028;-77
2022/03/27 00:44:45;;;;;;;9.30;7.70;;;;;;;12.09;42.76;103343.94;5057662;28;20045;-79
2022/03/27 00:47:11;;;;;;;9.98;7.78;;;;;;;12.56;42.11;103347.34;5058525;28;20033;-78
2022/03/27 00:49:36;;;;;;;9.55;7.38;;;;;;;11.63;43.76;103353.25;5057052;28;20052;-78
2022/03/27 00:52:03;;;;;;;12.13;8.38;;;;;;;11.49;44.27;103344.28;5038538;28;20520;-77
2022/03/27 00:54:28;;;;;;;9.85;7.22;;;;;;;11.79;43.95;103350.09;5057173;28;20033;-78
2022/03/27 00:56:53;;;;;;;12.40;8.73;;;;;;;9.70;48.22;103347.59;5079331;28;20093;-79
2022/03/27 00:59:19;;;;;;;9.50;6.85;;;;;;;10.71;45.86;103344.16;5095362;28;20103;-78
2022/03/27 01:01:44;;;;;;;10.07;6.70;;;;;;;11.19;44.49;103345.69;5095846;28;20241;-77
2022/03/27 01:04:11;;;;;;;10.38;8.00;;;;;;;11.45;43.93;103351.94;5094951;28;20048;-77
2022/03/27 01:06:39;;;;;;;14.00;8.35;;;;;;;12.43;41.82;103345.53;5095313;28;20530;-79
2022/03/27 01:11:51;;;;;;;14.70;8.05;;;;;;;12.15;42.42;103342.25;5095058;28;20101;-77
2022/03/27 01:14:30;;;;;;;10.77;7.25;;;;;;;11.11;44.55;103351.31;5095453;28;20339;-78
2022/03/27 01:17:02;;;;;;;12.98;8.52;;;;;;;11.47;43.35;103351.78;5095258;28;20501;-77
2022/03/27 01:19:28;;;;;;;10.18;7.72;;;;;;;11.69;42.88;103344.25;5096045;28;20081;-78
2022/03/27 01:21:53;;;;;;;11.50;8.43;;;;;;;12.20;41.50;103347.91;5094138;28;20035;-77
2022/03/27 01:24:19;;;;;;;11.30;7.90;;;;;;;11.69;42.84;103342.34;5094175;28;20509;-78
2022/03/27 01:26:45;;;;;;;11.30;8.45;;;;;;;11.74;42.69;103342.56;5083540;28;20078;-77
2022/03/27 01:29:11;;;;;;;13.77;9.13;;;;;;;12.18;41.80;103341.84;5075380;28;20024;-78
2022/03/27 01:31:37;;;;;;;12.77;8.80;;;;;;;11.92;41.75;103347.34;5074640;28;20162;-77
2022/03/27 01:34:05;;;;;;;13.45;9.00;;;;;;;10.62;45.43;103348.91;5074472;28;20060;-78
2022/03/27 01:36:34;;;;;;;12.65;9.32;;;;;;;11.03;44.55;103341.50;5074535;28;20047;-78
2022/03/27 01:39:01;;;;;;;11.65;8.75;;;;;;;10.64;45.50;103350.41;5074711;28;20114;-79
2022/03/27 01:41:27;;;;;;;11.85;8.48;;;;;;;11.23;43.97;103341.50;5074919;28;20036;-79
2022/03/27 01:43:53;;;;;;;13.88;9.05;;;;;;;11.86;42.47;103350.91;5056616;28;20043;-78
2022/03/27 01:46:18;;;;;;;11.55;8.48;;;;;;;10.85;44.33;103343.97;5073969;28;20036;-79
2022/03/27 01:48:44;;;;;;;14.23;9.73;;;;;;;11.34;43.86;103344.44;5074544;28;20061;-77
2022/03/27 01:51:10;;;;;;;18.08;10.38;;;;;;;9.98;45.81;103344.84;5075398;28;20086;-77
2022/03/27 01:53:37;;;;;;;11.02;7.70;;;;;;;10.84;44.17;103333.31;5062414;28;20458;-77
2022/03/27 01:56:03;;;;;;;13.55;8.80;;;;;;;10.93;43.74;103334.78;5094694;28;20032;-76
2022/03/27 01:58:30;;;;;;;16.38;9.23;;;;;;;11.05;43.42;103338.56;5095582;28;20068;-79
2022/03/27 02:00:56;;;;;;;13.20;8.85;;;;;;;11.24;42.64;103340.44;5094670;28;20047;-77
2022/03/27 02:03:22;;;;;;;11.80;8.52;;;;;;;10.90;43.23;103332.50;5095294;28;20454;-78
2022/03/27 02:05:48;;;;;;;14.40;8.02;;;;;;;11.53;41.72;103329.22;5093283;28;20036;-79
2022/03/27 02:08:13;;;;;;;14.10;8.70;;;;;;;10.96;42.93;103340.63;5076779;28;20375;-79
2022/03/27 02:10:41;;;;;;;11.68;7.82;;;;;;;11.08;42.75;103338.16;5094069;28;20501;-78
2022/03/27 02:13:12;;;;;;;14.80;8.07;;;;;;;10.92;42.83;103325.81;5082326;28;20036;-79
2022/03/27 02:15:38;;;;;;;11.73;7.25;;;;;;;11.39;41.67;103332.94;5074126;28;20029;-78
2022/03/27 02:18:04;;;;;;;10.63;7.07;;;;;;;11.82;40.66;103336.91;5075152;28;20119;-80
2022/03/27 02:20:29;;;;;;;11.10;7.97;;;;;;;10.78;42.83;103339.56;5074182;28;20447;-79
2022/03/27 02:22:54;;;;;;;10.50;7.53;;;;;;;11.23;41.90;103336.06;5073263;28;20128;-78
2022/03/27 02:25:20;;;;;;;12.45;7.50;;;;;;;11.30;41.50;103332.31;5073744;28;20029;-79
2022/03/27 02:27:46;;;;;;;10.13;7.82;;;;;;;11.02;42.20;103331.66;5073684;28;20025;-77
2022/03/27 02:30:12;;;;;;;11.45;7.90;;;;;;;10.74;43.11;103328.28;5054962;28;20130;-79
2022/03/27 02:32:37;;;;;;;12.15;7.55;;;;;;;11.51;41.01;103326.69;5074662;28;20032;-77
2022/03/27 02:35:03;;;;;;;12.88;8.02;;;;;;;10.96;42.23;103324.34;5074802;28;20059;-79
2022/03/27 02:37:28;;;;;;;10.38;7.05;;;;;;;11.03;42.19;103321.63;5074155;28;20074;-77
2022/03/27 02:39:54;;;;;;;10.95;7.47;;;;;;;10.91;42.54;103326.84;5084489;28;20525;-78
2022/03/27 02:42:19;;;;;;;12.25;8.07;;;;;;;10.86;42.67;103318.50;5074531;28;20557;-78
2022/03/27 02:44:44;;;;;;;13.30;8.65;;;;;;;9.95;44.54;103329.81;5073503;28;20113;-78
2022/03/27 02:47:10;;;;;;;15.70;8.82;;;;;;;9.79;45.45;103332.84;5074492;28;20079;-79
2022/03/27 02:49:35;;;;;;;12.95;7.80;;;;;;;10.55;43.33;103331.75;5074806;28;20128;-78
2022/03/27 02:52:03;;;;;;;12.93;7.63;;;;;;;10.77;43.12;103325.13;5074048;28;20210;-78
2022/03/27 02:54:28;;;;;;;13.43;8.70;;;;;;;10.44;43.58;103330.47;5072360;28;20520;-78
2022/03/27 02:56:53;;;;;;;14.38;8.43;;;;;;;10.60;43.07;103323.84;5072477;28;20020;-79
2022/03/27 02:59:19;;;;;;;10.77;7.53;;;;;;;10.66;43.24;103326.59;5073209;28;20066;-79
2022/03/27 03:01:45;;;;;;;12.55;8.93;;;;;;;11.07;41.96;103315.59;5051051;28;20037;-80
2022/03/27 03:04:11;;;;;;;14.50;8.63;;;;;;;9.54;45.49;103331.63;5071834;28;20032;-79
2022/03/27 03:06:36;;;;;;;16.08;10.15;;;;;;;7.60;50.57;103324.53;5071476;28;20036;-78
2022/03/27 03:09:04;;;;;;;18.27;11.02;;;;;;;8.90;47.50;103326.22;5071059;28;20033;-79
2022/03/27 03:11:29;;;;;;;13.85;9.57;;;;;;;9.03;46.48;103320.13;5072228;28;20037;-79
2022/03/27 03:13:55;;;;;;;19.08;9.43;;;;;;;9.93;44.03;103326.44;5035446;28;20120;-78
2022/03/27 03:16:21;;;;;;;15.50;9.52;;;;;;;9.36;45.55;103312.25;5068994;28;20075;-77
2022/03/27 03:18:47;;;;;;;19.50;10.45;;;;;;;9.77;44.48;103316.78;5071938;28;20025;-78
2022/03/27 03:21:12;;;;;;;13.85;9.88;;;;;;;9.94;44.03;103319.16;5071268;28;20028;-78
2022/03/27 03:23:38;;;;;;;14.80;9.95;;;;;;;8.98;46.81;103317.97;5072386;28;20032;-78
2022/03/27 03:26:06;;;;;;;14.10;10.13;;;;;;;7.67;50.26;103314.66;5067209;28;20048;-77
2022/03/27 03:28:32;;;;;;;17.48;10.77;;;;;;;8.32;47.80;103312.91;5051606;28;20059;-78
2022/03/27 03:30:57;;;;;;;13.75;8.80;;;;;;;8.79;46.54;103321.34;5051528;28;20406;-78
2022/03/27 03:33:22;;;;;;;14.52;8.90;;;;;;;8.49;46.82;103313.50;5051064;28;20056;-78
2022/03/27 03:35:48;;;;;;;14.30;9.07;;;;;;;7.10;50.07;103320.63;5051591;28;20025;-78
2022/03/27 03:38:13;;;;;;;18.02;9.50;;;;;;;8.23;47.33;103313.16;5051425;28;20147;-78
2022/03/27 03:40:41;;;;;;;14.98;8.98;;;;;;;8.61;46.38;103315.50;5050964;28;20061;-77
2022/03/27 03:43:07;;;;;;;14.38;9.30;;;;;;;8.88;45.76;103308.50;5059430;28;20025;-78
2022/03/27 03:45:32;;;;;;;13.63;9.55;;;;;;;8.36;46.92;103314.19;5080201;28;20062;-79
2022/03/27 03:47:59;;;;;;;12.98;9.40;;;;;;;9.65;43.85;103312.09;5091265;28;20524;-79
2022/03/27 03:50:25;;;;;;;14.50;9.30;;;;;;;8.93;45.04;103314.19;5092267;28;20039;-79
2022/03/27 03:52:50;;;;;;;13.52;8.77;;;;;;;9.60;43.79;103309.16;5092344;28;20036;-79
2022/03/27 03:55:16;;;;;;;13.45;9.77;;;;;;;9.87;42.71;103316.41;5092065;28;20035;-79
2022/03/27 03:57:41;;;;;;;13.38;9.13;;;;;;;10.10;42.27;103313.38;5092103;28;20113;-79
2022/03/27 04:00:07;;;;;;;15.15;9.13;;;;;;;9.28;43.94;103315.97;5091971;28;20040;-78
2022/03/27 04:02:33;;;;;;;15.13;8.68;;;;;;;9.28;44.13;103315.97;5092853;28;20111;-78
2022/03/27 04:05:01;;;;;;;11.05;7.57;;;;;;;8.86;45.04;103315.97;5091970;28;20538;-78
2022/03/27 04:07:26;;;;;;;9.82;7.70;;;;;;;8.50;45.92;103321.44;5091727;28;20036;-79
2022/03/27 04:09:52;;;;;;;16.35;8.23;;;;;;;9.52;43.01;103320.97;5092124;28;20058;-79
2022/03/27 04:12:17;;;;;;;11.20;7.70;;;;;;;9.29;43.91;103322.22;5086751;28;20115;-80
2022/03/27 04:14:43;;;;;;;13.32;7.95;;;;;;;9.02;44.90;103323.84;5070918;28;20090;-76
2022/03/27 04:17:09;;;;;;;11.55;8.05;;;;;;;9.48;43.62;103327.84;5071602;28;20024;-77
2022/03/27 04:19:34;;;;;;;12.85;7.90;;;;;;;7.51;47.86;103320.22;5070649;28;20064;-78
2022/03/27 04:22:00;;;;;;;10.68;7.82;;;;;;;7.92;47.40;103318.75;5064197;28;20037;-79
2022/03/27 04:24:26;;;;;;;8.50;6.35;;;;;;;7.94;47.74;103314.00;5069504;28;20110;-78
2022/03/27 04:26:52;;;;;;;12.88;7.10;;;;;;;7.06;49.53;103318.44;5065600;28;20043;-77
2022/03/27 04:29:17;;;;;;;15.38;7.10;;;;;;;8.45;46.28;103310.34;5074857;28;20374;-78
2022/03/27 04:31:43;;;;;;;13.63;7.25;;;;;;;8.55;45.84;103316.28;5074390;28;20052;-77
2022/03/27 04:34:09;;;;;;;12.10;7.20;;;;;;;7.77;47.77;103312.53;5074084;28;20053;-77
2022/03/27 04:36:35;;;;;;;13.52;8.15;;;;;;;7.67;47.25;103310.09;5056488;28;20094;-77
2022/03/27 04:39:01;;;;;;;11.20;6.65;;;;;;;8.09;46.39;103315.69;5074372;28;20041;-77
2022/03/27 04:41:26;;;;;;;13.18;6.28;;;;;;;8.13;47.04;103309.91;5080008;28;20031;-76
2022/03/27 04:43:51;;;;;;;21.23;7.15;;;;;;;8.37;45.92;103306.91;5079605;28;20435;-80
2022/03/27 04:46:18;;;;;;;12.68;6.57;;;;;;;8.29;46.05;103305.13;5074529;28;20492;-78
2022/03/27 04:48:44;;;;;;;9.85;6.43;;;;;;;8.68;45.39;103313.72;5074499;28;20060;-78
2022/03/27 04:51:10;;;;;;;10.88;7.60;;;;;;;8.18;46.61;103308.31;5074129;28;20040;-78
2022/03/27 04:53:36;;;;;;;12.30;6.90;;;;;;;8.07;46.09;103301.50;5075359;28;20044;-78
2022/03/27 04:56:01;;;;;;;11.65;6.47;;;;;;;7.78;47.11;103311.47;5074995;28;20082;-78
2022/03/27 04:58:27;;;;;;;11.68;6.63;;;;;;;8.68;44.60;103310.19;5074789;28;20033;-77
2022/03/27 05:00:52;;;;;;;14.95;7.35;;;;;;;9.29;43.34;103309.50;5074046;28;20123;-79
2022/03/27 05:03:18;;;;;;;12.30;6.53;;;;;;;8.19;45.33;103306.44;5075406;28;20512;-80
2022/03/27 05:05:43;;;;;;;13.05;6.32;;;;;;;8.74;44.53;103307.53;5074538;28;20090;-79
2022/03/27 05:08:10;;;;;;;16.10;7.38;;;;;;;9.07;43.38;103310.56;5057405;28;20482;-79
2022/03/27 05:10:35;;;;;;;13.98;7.65;;;;;;;9.01;44.23;103311.34;5075519;28;20036;-78
2022/03/27 05:13:02;;;;;;;16.35;7.32;;;;;;;9.44;42.88;103317.56;5074792;28;20131;-79
2022/03/27 05:15:28;;;;;;;13.18;6.28;;;;;;;9.38;42.89;103319.16;5072446;28;20090;-78
2022/03/27 05:17:58;;;;;;;15.23;7.40;;;;;;;9.54;42.22;103316.22;5074038;28;20048;-78
2022/03/27 05:20:24;;;;;;;12.30;6.80;;;;;;;9.42;42.35;103320.50;5072792;28;20116;-80
2022/03/27 05:22:50;;;;;;;17.50;6.65;;;;;;;9.30;42.52;103322.03;5073377;28;21002;-79
2022/03/27 05:25:16;;;;;;;13.73;7.47;;;;;;;9.29;42.08;103314.91;5073330;28;20036;-79
2022/03/27 05:28:02;;;;;;;14.18;7.20;;;;;;;9.44;42.13;103320.28;5073490;28;20033;-78
2022/03/27 05:30:27;;;;;;;11.50;6.25;;;;;;;9.45;42.01;103321.97;5073082;28;20040;-79
2022/03/27 05:32:54;;;;;;;16.38;6.40;;;;;;;9.59;41.91;103319.16;5073140;28;20490;-78
2022/03/27 05:35:21;;;;;;;18.80;6.53;;;;;;;9.38;42.02;103319.16;5073371;28;20103;-79
2022/03/27 05:37:48;;;;;;;18.40;7.03;;;;;;;9.28;42.33;103325.94;5070024;28;20056;-79
2022/03/27 05:40:17;;;;;;;11.75;6.22;;;;;;;9.56;41.67;103324.13;5072959;28;20128;-79
2022/03/27 05:42:43;;;;;;;13.80;7.50;;;;;;;9.42;41.88;103331.31;5073268;28;20032;-79
2022/03/27 05:45:09;;;;;;;16.45;7.75;;;;;;;9.49;41.82;103334.06;5073666;28;20032;-78
2022/03/27 05:47:37;;;;;;;16.48;7.63;;;;;;;9.16;42.61;103332.94;5073397;28;20130;-78
2022/03/27 05:50:04;;;;;;;15.77;6.40;;;;;;;9.26;41.95;103338.84;5072882;28;20036;-79
2022/03/27 05:52:29;;;;;;;16.73;7.70;;;;;;;9.44;41.71;103334.69;5072800;28;20494;-79
2022/03/27 05:54:56;;;;;;;12.88;6.75;;;;;;;9.37;42.21;103344.56;5073045;28;20043;-78
2022/03/27 05:57:21;;;;;;;15.02;7.05;;;;;;;9.45;41.75;103347.19;5085493;28;20086;-78
2022/03/27 05:59:47;;;;;;;13.18;7.20;;;;;;;9.18;42.59;103347.13;5071957;28;20036;-77
2022/03/27 06:02:14;;;;;;;16.30;7.57;;;;;;;9.13;42.70;103346.88;5072514;28;20029;-77
2022/03/27 06:04:39;;;;;;;14.65;7.55;;;;;;;9.03;43.40;103332.81;5072189;28;20044;-79
2022/03/27 06:07:05;;;;;;;13.45;7.75;;;;;;;9.24;42.96;103340.91;5072454;28;20111;-79
2022/03/27 06:09:30;;;;;;;12.70;6.90;;;;;;;9.42;42.39;103349.44;5071279;28;20039;-77
2022/03/27 06:11:56;;;;;;;14.25;7.45;;;;;;;9.44;42.48;103352.81;5072670;28;20044;-77
2022/03/27 06:14:21;;;;;;;12.00;6.25;;;;;;;9.42;42.30;103349.44;5072650;28;20059;-79
2022/03/27 06:16:47;;;;;;;12.38;7.78;;;;;;;9.64;41.80;103351.09;5068352;28;20056;-77
2022/03/27 06:19:12;;;;;;;15.45;7.88;;;;;;;9.53;42.31;103357.88;5072286;28;20148;-77
2022/03/27 06:21:37;;;;;;;13.25;7.72;;;;;;;9.54;41.78;103362.28;5071950;28;20049;-77
2022/03/27 06:24:04;;;;;;;15.60;8.10;;;;;;;9.51;41.90;103353.69;5072053;28;20042;-78
2022/03/27 06:26:29;;;;;;;14.25;7.82;;;;;;;9.59;41.86;103351.66;5051278;28;20045;-77
2022/03/27 06:28:55;;;;;;;17.95;8.93;;;;;;;9.93;41.44;103350.03;5052289;28;20044;-77
2022/03/27 06:31:21;;;;;;;12.88;8.38;;;;;;;9.61;41.96;103348.75;5052463;28;20095;-78
2022/03/27 06:33:46;;;;;;;12.75;8.10;;;;;;;9.72;41.39;103357.19;5053102;28;20037;-77
2022/03/27 06:36:12;;;;;;;27.30;12.88;;;;;;;9.79;41.94;103354.53;5086077;28;20071;-78
2022/03/27 06:38:38;;;;;;;16.95;9.98;;;;;;;9.83;41.92;103358.50;5073698;28;20113;-75
2022/03/27 06:41:04;;;;;;;23.67;10.52;;;;;;;9.86;41.79;103360.84;5092768;28;20028;-78
2022/03/27 06:43:29;;;;;;;17.45;10.50;;;;;;;10.20;40.95;103362.69;5080868;28;20036;-78
2022/03/27 06:45:55;;;;;;;20.00;10.77;;;;;;;9.95;41.86;103364.22;5072647;28;20044;-77
2022/03/27 06:48:20;;;;;;;25.73;11.02;;;;;;;10.12;41.79;103363.69;5071649;28;20551;-77
2022/03/27 06:50:46;;;;;;;21.33;10.43;;;;;;;10.49;40.85;103359.75;5064452;28;20074;-77
2022/03/27 06:53:14;;;;;;;18.95;10.52;;;;;;;10.51;41.09;103360.38;5065278;28;20032;-76
2022/03/27 06:55:43;;;;;;;19.63;10.98;;;;;;;10.57;41.14;103363.09;5065989;28;20090;-75
2022/03/27 06:58:08;;;;;;;23.20;10.13;;;;;;;10.78;40.51;103356.69;5066438;28;20111;-77
2022/03/27 07:03:20;;;;;;;18.25;9.77;;;;;;;11.21;39.85;103365.34;5065048;28;20104;-77
2022/03/27 07:05:45;;;;;;;26.50;12.23;;;;;;;10.99;40.53;103363.84;5066712;28;20539;-76
2022/03/27 07:08:16;;;;;;;18.85;10.00;;;;;;;11.42;39.56;103360.53;5072026;28;20012;-77
2022/03/27 07:10:44;;;;;;;20.33;10.10;;;;;;;10.41;41.10;103363.41;5061646;28;20032;-77
2022/03/27 07:13:11;;;;;;;20.08;9.95;;;;;;;11.11;40.39;103362.19;5066827;28;20040;-77
2022/03/27 07:15:37;;;;;;;26.98;11.30;;;;;;;11.62;39.47;103362.44;5064738;28;20033;-76
2022/03/27 07:18:03;;;;;;;25.35;10.70;;;;;;;11.39;39.67;103355.50;5042504;28;20086;-76
2022/03/27 07:20:31;;;;;;;24.75;10.30;;;;;;;11.15;39.95;103363.44;5062286;28;20045;-77
2022/03/27 07:22:59;;;;;;;22.10;10.02;;;;;;;10.27;42.05;103374.44;5072070;28;20033;-77
2022/03/27 07:25:26;;;;;;;20.30;9.18;;;;;;;10.50;40.88;103367.69;5066635;28;20429;-77
2022/03/27 07:27:52;;;;;;;28.63;9.15;;;;;;;10.94;40.11;103358.19;5066236;28;20473;-77
2022/03/27 07:30:17;;;;;;;20.75;10.38;;;;;;;10.90;40.32;103356.94;5066227;28;20048;-76
2022/03/27 07:32:44;;;;;;;24.27;10.30;;;;;;;10.51;41.35;103360.38;5044105;28;20037;-74
2022/03/27 07:35:13;;;;;;;22.45;11.07;;;;;;;10.68;40.70;103367.97;5063760;28;20125;-77
2022/03/27 07:37:41;;;;;;;22.27;10.05;;;;;;;11.17;39.78;103356.78;5061938;28;20037;-75
2022/03/27 07:40:11;;;;;;;25.70;10.80;;;;;;;10.40;41.09;103355.47;5065089;28;20028;-77
2022/03/27 07:42:38;;;;;;;23.08;10.05;;;;;;;10.28;41.93;103365.22;5041228;28;20068;-75
2022/03/27 07:45:04;;;;;;;21.13;10.07;;;;;;;10.32;41.74;103358.38;5066483;28;20044;-77
2022/03/27 07:47:30;;;;;;;23.98;10.73;;;;;;;9.37;43.59;103362.72;5067722;28;20040;-78
2022/03/27 07:49:55;;;;;;;22.23;8.65;;;;;;;9.73;42.56;103358.03;5069429;28;20028;-76
2022/03/27 07:52:22;;;;;;;24.10;10.70;;;;;;;10.51;40.79;103366.63;5069352;28;20036;-78
2022/03/27 07:54:48;;;;;;;22.80;10.18;;;;;;;11.21;39.24;103358.03;5062527;28;20039;-78
2022/03/27 07:57:14;;;;;;;23.83;10.07;;;;;;;11.05;39.36;103355.72;5045371;28;20037;-78
2022/03/27 07:59:39;;;;;;;27.27;10.60;;;;;;;10.79;40.49;103368.38;5065934;28;20025;-75
2022/03/27 08:02:05;;;;;;;21.08;10.45;;;;;;;11.63;38.92;103367.66;5065293;28;20552;-76
2022/03/27 08:04:31;;;;;;;26.02;9.52;;;;;;;10.76;39.78;103369.66;5067675;28;20045;-77
2022/03/27 08:06:57;;;;;;;19.25;9.48;;;;;;;11.12;38.81;103363.88;5069897;28;20051;-77
2022/03/27 08:09:22;;;;;;;28.42;11.77;;;;;;;11.52;37.89;103366.44;5069024;28;20033;-77
2022/03/27 08:11:47;;;;;;;19.17;10.45;;;;;;;11.53;38.04;103378.97;5070907;28;20412;-77
2022/03/27 08:14:13;;;;;;;20.38;10.32;;;;;;;11.49;38.36;103369.56;5070771;28;20066;-77
2022/03/27 08:16:39;;;;;;;22.35;10.10;;;;;;;11.25;39.32;103367.44;5068804;28;20047;-76
2022/03/27 08:19:04;;;;;;;18.17;10.27;;;;;;;11.94;37.39;103369.72;5066965;28;20068;-75
2022/03/27 08:21:30;;;;;;;23.95;11.43;;;;;;;11.19;39.41;103371.00;5068348;28;20052;-76
2022/03/27 08:23:56;;;;;;;20.75;10.00;;;;;;;12.14;37.75;103365.91;5072577;28;20034;-74
2022/03/27 08:29:06;;;;;;;19.10;9.35;;;;;;;11.26;38.71;103370.97;5073761;28;20051;-74
2022/03/27 08:31:32;;;;;;;16.95;9.93;;;;;;;11.94;37.55;103367.00;5062638;28;20040;-73
2022/03/27 08:33:58;;;;;;;22.20;9.80;;;;;;;10.97;38.82;103368.63;5068662;28;20146;-78
2022/03/27 08:36:24;;;;;;;22.10;9.95;;;;;;;11.73;37.59;103375.41;5068590;28;20040;-76
2022/03/27 08:38:49;;;;;;;20.17;10.43;;;;;;;11.31;38.35;103368.50;5070261;28;20398;-76
2022/03/27 08:41:16;;;;;;;20.63;9.63;;;;;;;11.48;38.29;103367.03;5063519;28;20085;-76
2022/03/27 08:43:43;;;;;;;22.60;9.93;;;;;;;11.96;37.07;103371.19;5073779;28;20043;-76
2022/03/27 08:46:09;;;;;;;19.45;9.98;;;;;;;11.89;37.50;103359.47;5074174;28;20045;-75
2022/03/27 08:48:37;;;;;;;25.90;10.50;;;;;;;12.11;36.88;103368.22;5073979;28;20036;-76
2022/03/27 08:51:25;;;;;;;24.48;10.98;;;;;;;11.60;37.96;103373.53;5074201;28;20037;-74
2022/03/27 08:54:02;;;;;;;22.58;11.00;;;;;;;10.15;41.30;103368.75;5073370;28;20100;-75
2022/03/27 08:56:29;;;;;;;22.88;10.93;;;;;;;9.51;43.17;103367.22;5074497;28;20107;-75
2022/03/27 08:58:57;;;;;;;30.52;13.23;;;;;;;9.11;44.15;103368.75;5054285;28;20035;-74
2022/03/27 09:01:23;;;;;;;26.92;11.85;;;;;;;11.01;40.06;103370.75;5068647;28;20498;-74
2022/03/27 09:03:48;;;;;;;28.65;12.45;;;;;;;12.06;38.36;103363.41;5069353;28;20033;-75
2022/03/27 09:06:14;;;;;;;21.33;11.55;;;;;;;12.32;37.84;103363.31;5073980;28;20041;-75
2022/03/27 09:08:39;;;;;;;26.77;11.55;;;;;;;12.34;36.64;103363.94;5043056;28;20052;-74
2022/03/27 09:11:06;;;;;;;23.58;10.55;;;;;;;12.75;36.16;103363.56;5073684;28;20517;-74
2022/03/27 09:13:32;;;;;;;23.30;10.75;;;;;;;12.45;36.47;103364.38;5074682;28;20028;-75
2022/03/27 09:16:02;;;;;;;26.00;11.27;;;;;;;12.04;37.59;103370.13;5060211;28;20037;-75
2022/03/27 09:18:55;;;;;;;28.83;12.32;;;;;;;12.31;37.64;103358.09;5068911;28;20037;-74
2022/03/27 09:21:22;;;;;;;21.13;10.75;;;;;;;13.14;35.95;103363.31;5071465;28;20076;-76
2022/03/27 09:23:59;;;;;;;28.27;10.70;;;;;;;13.60;35.26;103360.25;5069770;28;20087;-73
2022/03/27 09:26:25;;;;;;;29.65;11.70;;;;;;;13.42;35.10;103357.47;5065388;28;20047;-75
2022/03/27 09:28:53;;;;;;;23.95;11.18;;;;;;;11.14;39.37;103359.06;5069460;28;20458;-74
2022/03/27 09:31:19;;;;;;;31.23;13.35;;;;;;;12.03;38.25;103354.84;5069176;28;20047;-74
2022/03/27 09:34:00;;;;;;;25.60;11.07;;;;;;;13.36;35.85;103352.09;5070388;28;20053;-74
2022/03/27 09:36:28;;;;;;;29.83;11.30;;;;;;;12.86;35.25;103349.28;5058496;28;20406;-73
2022/03/27 09:38:59;;;;;;;23.85;11.07;;;;;;;13.67;34.79;103344.66;5040001;28;20066;-74
2022/03/27 09:41:31;;;;;;;28.13;11.00;;;;;;;14.41;32.89;103340.91;5073584;28;20040;-75
2022/03/27 09:44:06;;;;;;;25.88;11.27;;;;;;;14.44;33.56;103343.19;5066046;28;20033;-76
2022/03/27 09:46:59;;;;;;;23.73;12.35;;;;;;;13.46;34.10;103336.06;5049888;28;20120;-74
2022/03/27 09:49:40;;;;;;;35.75;12.52;;;;;;;13.83;34.49;103332.34;5059835;28;20041;-71
2022/03/27 09:52:19;;;;;;;19.73;11.05;;;;;;;13.01;34.96;103332.59;5064526;28;20045;-74
2022/03/27 09:54:51;;;;;;;20.40;10.23;;;;;;;14.46;33.60;103332.88;5039719;28;20192;-75
2022/03/27 09:57:31;;;;;;;28.42;12.75;;;;;;;11.72;39.12;103327.50;5058833;28;20029;-75
2022/03/27 10:00:19;;;;;;;26.42;11.00;;;;;;;12.36;37.09;103321.00;5069178;28;20029;-73
2022/03/27 10:02:46;;;;;;;24.83;11.00;;;;;;;13.00;33.98;103325.50;5055968;28;20048;-75
2022/03/27 10:05:16;;;;;;;30.02;11.52;;;;;;;13.24;34.33;103319.22;5061096;28;20502;-73
2022/03/27 10:07:50;;;;;;;28.03;9.83;;;;;;;13.99;32.92;103318.06;5053418;28;20032;-75
2022/03/27 10:10:18;;;;;;;26.58;9.18;;;;;;;14.66;31.50;103322.47;5072768;28;20046;-74
2022/03/27 10:12:49;;;;;;;22.77;8.85;;;;;;;14.57;30.99;103327.47;5058610;28;20032;-73
2022/03/27 10:15:23;;;;;;;24.60;10.32;;;;;;;14.47;31.74;103324.44;5065416;28;20043;-74
2022/03/27 10:17:51;;;;;;;23.80;9.95;;;;;;;14.83;31.47;103312.59;5053107;28;20109;-73
2022/03/27 10:20:20;;;;;;;24.92;10.88;;;;;;;15.65;30.69;103312.47;5039421;28;20281;-74
2022/03/27 10:22:52;;;;;;;21.40;9.40;;;;;;;15.97;29.86;103312.94;5064300;28;20051;-72
2022/03/27 10:25:18;;;;;;;26.05;10.68;;;;;;;14.39;32.21;103310.25;5065853;28;20056;-72
2022/03/27 10:27:46;;;;;;;29.50;11.23;;;;;;;15.52;31.49;103303.66;5067593;28;20036;-73
2022/03/27 10:30:16;;;;;;;30.80;11.02;;;;;;;14.13;33.19;103314.97;5059817;28;20072;-74
2022/03/27 10:32:43;;;;;;;29.58;11.00;;;;;;;13.78;33.78;103303.00;5065040;28;20044;-74
2022/03/27 10:35:32;;;;;;;20.33;9.27;;;;;;;15.42;31.84;103296.06;5057241;28;20410;-74
2022/03/27 10:38:16;;;;;;;29.02;9.57;;;;;;;14.59;31.60;103289.81;5066833;28;20127;-75
2022/03/27 10:40:50;;;;;;;22.45;9.80;;;;;;;13.05;34.28;103292.94;5059030;28;20095;-74
2022/03/27 10:43:45;;;;;;;26.33;8.30;;;;;;;14.31;33.02;103292.28;5064520;28;20032;-74
2022/03/27 10:46:25;;;;;;;30.30;10.07;;;;;;;14.02;33.65;103287.59;5053104;28;20036;-73
2022/03/27 10:48:53;;;;;;;25.92;9.02;;;;;;;14.22;32.92;103288.22;5068834;28;20036;-74
2022/03/27 10:51:24;;;;;;;24.30;9.23;;;;;;;15.77;31.30;103277.72;5049184;28;20153;-74
2022/03/27 10:54:08;;;;;;;24.50;9.45;;;;;;;16.02;30.14;103274.69;5058102;28;20132;-73
2022/03/27 10:56:39;;;;;;;27.23;8.05;;;;;;;16.33;29.18;103267.91;5059282;28;20512;-72
2022/03/27 10:59:10;;;;;;;21.73;8.13;;;;;;;16.21;28.92;103261.66;5064573;28;20044;-73
2022/03/27 11:01:38;;;;;;;25.73;7.97;;;;;;;15.61;29.48;103261.19;5042607;28;20106;-74
2022/03/27 11:04:09;;;;;;;26.65;9.27;;;;;;;16.83;28.31;103259.81;5057413;28;20056;-74
2022/03/27 11:06:36;;;;;;;;;;;;;;;17.70;27.43;103259.03;5059044;28;20045;-73
2022/03/27 11:09:04;;;;;;;21.05;8.85;;;;;;;16.99;27.87;103259.00;5068684;28;20314;-74
2022/03/27 11:11:36;;;;;;;23.73;8.82;;;;;;;17.42;28.12;103256.41;5063576;28;20032;-75
2022/03/27 11:14:03;;;;;;;22.13;7.85;;;;;;;16.33;29.36;103249.56;5066502;28;20029;-75
2022/03/27 11:16:29;;;;;;;28.92;8.88;;;;;;;16.79;28.44;103242.19;5047992;28;20033;-75
2022/03/27 11:18:54;;;;;;;26.63;9.57;;;;;;;16.90;28.02;103250.34;5061651;28;20029;-72
2022/03/27 11:21:28;;;;;;;25.08;8.95;;;;;;;17.14;27.88;103248.25;5069739;28;20482;-74
2022/03/27 11:24:04;;;;;;;22.83;8.30;;;;;;;16.89;28.26;103248.69;5054813;28;20391;-75
2022/03/27 11:26:32;;;;;;;23.13;8.20;;;;;;;17.07;27.94;103250.34;5059177;28;20115;-73
2022/03/27 11:29:04;;;;;;;23.73;7.43;;;;;;;18.54;26.20;103251.22;5058396;28;20076;-74